sensor_id;sensor_type;location;lat;lon;timestamp;pressure;altitude;pressure_sealevel;temperature;humidity
51617;BME280;37697;52.588;13.394;2023-03-01T00:01:47;102653.99;;;-4.42;70.05
51617;BME280;37697;52.588;13.394;2023-03-01T00:07:13;102651.89;;;-4.48;70.27
51617;BME280;37697;52.588;13.394;2023-03-01T00:12:39;102648.64;;;-4.53;70.33
51617;BME280;37697;52.588;13.394;2023-03-01T00:18:05;102646.40;;;-4.59;70.52
51617;BME280;37697;52.588;13.394;2023-03-01T00:23:31;102638.10;;;-4.66;70.66
51617;BME280;37697;52.588;13.394;2023-03-01T00:28:58;102629.94;;;-4.72;70.66
51617;BME280;37697;52.588;13.394;2023-03-01T00:34:24;102631.00;;;-4.77;70.89
51617;BME280;37697;52.588;13.394;2023-03-01T00:39:49;102635.05;;;-4.82;70.99
51617;BME280;37697;52.588;13.394;2023-03-01T00:45:16;102633.21;;;-4.86;70.88
51617;BME280;37697;52.588;13.394;2023-03-01T00:50:41;102635.91;;;-4.92;71.02
51617;BME280;37697;52.588;13.394;2023-03-01T00:56:09;102634.06;;;-4.97;71.37
51617;BME280;37697;52.588;13.394;2023-03-01T01:01:38;102621.98;;;-5.03;71.27
51617;BME280;37697;52.588;13.394;2023-03-01T01:07:04;102613.98;;;-5.09;71.46
51617;BME280;37697;52.588;13.394;2023-03-01T01:12:30;102614.46;;;-5.14;71.69
51617;BME280;37697;52.588;13.394;2023-03-01T01:17:56;102606.65;;;-5.19;71.65
51617;BME280;37697;52.588;13.394;2023-03-01T01:23:21;102601.21;;;-5.21;71.75
51617;BME280;37697;52.588;13.394;2023-03-01T01:28:48;102588.26;;;-5.26;71.93
51617;BME280;37697;52.588;13.394;2023-03-01T01:34:17;102578.07;;;-5.32;71.97
51617;BME280;37697;52.588;13.394;2023-03-01T01:39:45;102578.05;;;-5.36;72.11
51617;BME280;37697;52.588;13.394;2023-03-01T01:45:28;102576.17;;;-5.38;72.36
51617;BME280;37697;52.588;13.394;2023-03-01T01:50:59;102570.48;;;-5.42;72.43
51617;BME280;37697;52.588;13.394;2023-03-01T01:56:27;102561.59;;;-5.46;72.38
51617;BME280;37697;52.588;13.394;2023-03-01T02:01:54;102561.67;;;-5.51;72.36
51617;BME280;37697;52.588;13.394;2023-03-01T02:07:22;102569.98;;;-5.53;72.43
51617;BME280;37697;52.588;13.394;2023-03-01T02:12:48;102570.23;;;-5.56;72.48
51617;BME280;37697;52.588;13.394;2023-03-01T02:18:17;102567.48;;;-5.59;72.52
51617;BME280;37697;52.588;13.394;2023-03-01T02:23:44;102570.57;;;-5.63;72.82
51617;BME280;37697;52.588;13.394;2023-03-01T02:29:10;102584.41;;;-5.65;72.73
51617;BME280;37697;52.588;13.394;2023-03-01T02:34:35;102593.52;;;-5.67;72.79
51617;BME280;37697;52.588;13.394;2023-03-01T02:40:08;102587.32;;;-5.71;72.91
51617;BME280;37697;52.588;13.394;2023-03-01T02:45:28;102579.71;;;-5.76;72.90
51617;BME280;37697;52.588;13.394;2023-03-01T02:51:05;102574.43;;;-5.80;73.17
51617;BME280;37697;52.588;13.394;2023-03-01T02:56:35;102566.92;;;-5.86;73.21
51617;BME280;37697;52.588;13.394;2023-03-01T03:02:02;102556.88;;;-5.91;73.31
51617;BME280;37697;52.588;13.394;2023-03-01T03:07:28;102561.27;;;-5.94;73.43
51617;BME280;37697;52.588;13.394;2023-03-01T03:12:56;102560.65;;;-5.97;73.68
51617;BME280;37697;52.588;13.394;2023-03-01T03:18:24;102558.77;;;-6.01;73.58
51617;BME280;37697;52.588;13.394;2023-03-01T03:23:50;102554.69;;;-6.05;73.62
51617;BME280;37697;52.588;13.394;2023-03-01T03:29:15;102551.31;;;-6.09;73.60
51617;BME280;37697;52.588;13.394;2023-03-01T03:34:41;102547.14;;;-6.13;73.80
51617;BME280;37697;52.588;13.394;2023-03-01T03:40:11;102542.64;;;-6.16;73.83
51617;BME280;37697;52.588;13.394;2023-03-01T03:45:37;102532.86;;;-6.18;73.89
51617;BME280;37697;52.588;13.394;2023-03-01T03:51:04;102532.58;;;-6.22;74.19
51617;BME280;37697;52.588;13.394;2023-03-01T03:56:31;102525.73;;;-6.28;74.18
51617;BME280;37697;52.588;13.394;2023-03-01T04:01:57;102524.20;;;-6.32;74.16
51617;BME280;37697;52.588;13.394;2023-03-01T04:07:22;102519.71;;;-6.36;74.27
51617;BME280;37697;52.588;13.394;2023-03-01T04:12:48;102512.55;;;-6.39;74.19
51617;BME280;37697;52.588;13.394;2023-03-01T04:18:17;102512.62;;;-6.42;74.30
51617;BME280;37697;52.588;13.394;2023-03-01T04:23:43;102516.91;;;-6.43;74.26
51617;BME280;37697;52.588;13.394;2023-03-01T04:29:09;102520.17;;;-6.46;74.54
51617;BME280;37697;52.588;13.394;2023-03-01T04:34:34;102520.74;;;-6.48;74.65
51617;BME280;37697;52.588;13.394;2023-03-01T04:40:00;102518.83;;;-6.51;74.58
51617;BME280;37697;52.588;13.394;2023-03-01T04:45:26;102513.48;;;-6.55;74.41
51617;BME280;37697;52.588;13.394;2023-03-01T04:50:52;102519.02;;;-6.58;74.69
51617;BME280;37697;52.588;13.394;2023-03-01T04:56:18;102523.05;;;-6.63;74.32
51617;BME280;37697;52.588;13.394;2023-03-01T05:01:44;102518.91;;;-6.67;74.12
51617;BME280;37697;52.588;13.394;2023-03-01T05:07:10;102513.52;;;-6.70;74.74
51617;BME280;37697;52.588;13.394;2023-03-01T05:12:34;102513.80;;;-6.71;74.89
51617;BME280;37697;52.588;13.394;2023-03-01T05:17:42;102512.64;;;-6.74;74.96
51617;BME280;37697;52.588;13.394;2023-03-01T05:23:08;102507.29;;;-6.78;75.02
51617;BME280;37697;52.588;13.394;2023-03-01T05:28:34;102509.10;;;-6.78;75.01
51617;BME280;37697;52.588;13.394;2023-03-01T05:34:00;102503.82;;;-6.79;75.27
51617;BME280;37697;52.588;13.394;2023-03-01T05:39:27;102503.88;;;-6.81;75.18
51617;BME280;37697;52.588;13.394;2023-03-01T05:44:55;102501.27;;;-6.84;75.50
51617;BME280;37697;52.588;13.394;2023-03-01T05:50:23;102499.73;;;-6.85;75.14
51617;BME280;37697;52.588;13.394;2023-03-01T05:55:50;102499.80;;;-6.85;75.36
51617;BME280;37697;52.588;13.394;2023-03-01T06:01:15;102499.58;;;-6.83;75.30
51617;BME280;37697;52.588;13.394;2023-03-01T06:06:41;102501.71;;;-6.79;75.23
51617;BME280;37697;52.588;13.394;2023-03-01T06:12:07;102502.16;;;-6.78;74.82
51617;BME280;37697;52.588;13.394;2023-03-01T06:17:34;102499.20;;;-6.77;75.46
51617;BME280;37697;52.588;13.394;2023-03-01T06:23:04;102494.45;;;-6.76;75.13
51617;BME280;37697;52.588;13.394;2023-03-01T06:28:30;102492.27;;;-6.70;75.74
51617;BME280;37697;52.588;13.394;2023-03-01T06:33:56;102501.36;;;-6.64;75.58
51617;BME280;37697;52.588;13.394;2023-03-01T06:39:22;102510.08;;;-6.55;76.00
51617;BME280;37697;52.588;13.394;2023-03-01T06:44:47;102516.16;;;-6.37;75.88
51617;BME280;37697;52.588;13.394;2023-03-01T06:50:14;102516.77;;;-6.11;76.01
51617;BME280;37697;52.588;13.394;2023-03-01T06:55:41;102515.52;;;-5.78;75.83
51617;BME280;37697;52.588;13.394;2023-03-01T07:01:08;102514.79;;;-5.38;76.02
51617;BME280;37697;52.588;13.394;2023-03-01T07:06:34;102518.42;;;-5.05;76.12
51617;BME280;37697;52.588;13.394;2023-03-01T07:12:00;102516.73;;;-4.64;76.64
51617;BME280;37697;52.588;13.394;2023-03-01T07:17:27;102520.48;;;-4.14;77.26
51617;BME280;37697;52.588;13.394;2023-03-01T07:22:53;102521.60;;;-3.58;77.61
51617;BME280;37697;52.588;13.394;2023-03-01T07:28:18;102525.44;;;-3.13;77.58
51617;BME280;37697;52.588;13.394;2023-03-01T07:33:43;102520.14;;;-2.59;77.71
51617;BME280;37697;52.588;13.394;2023-03-01T07:39:10;102517.59;;;-2.07;76.92
51617;BME280;37697;52.588;13.394;2023-03-01T07:44:36;102517.98;;;-1.68;76.36
51617;BME280;37697;52.588;13.394;2023-03-01T07:49:57;102513.58;;;-1.32;75.57
51617;BME280;37697;52.588;13.394;2023-03-01T07:55:25;102513.40;;;-0.98;75.91
51617;BME280;37697;52.588;13.394;2023-03-01T08:00:51;102510.96;;;-0.48;75.74
51617;BME280;37697;52.588;13.394;2023-03-01T08:06:17;102507.97;;;-0.01;75.25
51617;BME280;37697;52.588;13.394;2023-03-01T08:11:44;102508.91;;;0.41;74.62
51617;BME280;37697;52.588;13.394;2023-03-01T08:17:09;102507.03;;;0.70;73.98
51617;BME280;37697;52.588;13.394;2023-03-01T08:22:35;102504.85;;;0.97;73.49
51617;BME280;37697;52.588;13.394;2023-03-01T08:28:01;102491.43;;;1.34;73.21
51617;BME280;37697;52.588;13.394;2023-03-01T08:33:27;102484.59;;;1.71;72.40
51617;BME280;37697;52.588;13.394;2023-03-01T08:38:52;102477.91;;;1.92;71.52
51617;BME280;37697;52.588;13.394;2023-03-01T08:44:19;102475.17;;;2.40;71.58
51617;BME280;37697;52.588;13.394;2023-03-01T08:49:45;102479.44;;;2.71;70.54
51617;BME280;37697;52.588;13.394;2023-03-01T08:55:11;102474.16;;;2.91;69.71
51617;BME280;37697;52.588;13.394;2023-03-01T09:00:36;102467.35;;;3.22;69.72
51617;BME280;37697;52.588;13.394;2023-03-01T09:06:03;102463.89;;;3.39;68.30
51617;BME280;37697;52.588;13.394;2023-03-01T09:11:30;102460.21;;;3.54;67.48
51617;BME280;37697;52.588;13.394;2023-03-01T09:16:58;102467.34;;;3.51;66.50
51617;BME280;37697;52.588;13.394;2023-03-01T09:22:24;102466.77;;;3.69;66.59
51617;BME280;37697;52.588;13.394;2023-03-01T09:27:51;102462.71;;;4.06;66.87
51617;BME280;37697;52.588;13.394;2023-03-01T09:33:36;102466.92;;;4.23;64.79
51617;BME280;37697;52.588;13.394;2023-03-01T09:39:03;102465.77;;;4.23;63.91
51617;BME280;37697;52.588;13.394;2023-03-01T09:44:37;102460.29;;;4.42;63.82
51617;BME280;37697;52.588;13.394;2023-03-01T09:50:09;102461.81;;;4.90;64.17
51617;BME280;37697;52.588;13.394;2023-03-01T09:55:41;102458.45;;;4.92;62.13
51617;BME280;37697;52.588;13.394;2023-03-01T10:01:17;102457.59;;;5.08;62.49
51617;BME280;37697;52.588;13.394;2023-03-01T10:06:55;102450.10;;;5.38;60.13
51617;BME280;37697;52.588;13.394;2023-03-01T10:12:26;102462.55;;;5.49;59.41
51617;BME280;37697;52.588;13.394;2023-03-01T10:17:55;102458.95;;;5.48;59.54
51617;BME280;37697;52.588;13.394;2023-03-01T10:23:24;102451.82;;;5.64;59.27
51617;BME280;37697;52.588;13.394;2023-03-01T10:29:01;102448.54;;;5.85;59.51
51617;BME280;37697;52.588;13.394;2023-03-01T10:34:32;102446.67;;;6.04;58.36
51617;BME280;37697;52.588;13.394;2023-03-01T10:40:00;102441.64;;;5.95;57.01
51617;BME280;37697;52.588;13.394;2023-03-01T10:45:39;102433.84;;;6.16;57.27
51617;BME280;37697;52.588;13.394;2023-03-01T10:51:12;102423.55;;;6.12;56.37
51617;BME280;37697;52.588;13.394;2023-03-01T10:56:50;102415.86;;;6.21;56.77
51617;BME280;37697;52.588;13.394;2023-03-01T11:02:21;102405.58;;;6.54;56.73
51617;BME280;37697;52.588;13.394;2023-03-01T11:07:51;102410.23;;;6.92;56.41
51617;BME280;37697;52.588;13.394;2023-03-01T11:13:18;102403.80;;;6.96;54.95
51617;BME280;37697;52.588;13.394;2023-03-01T11:18:57;102388.27;;;7.05;54.71
51617;BME280;37697;52.588;13.394;2023-03-01T11:24:26;102390.48;;;7.30;53.61
51617;BME280;37697;52.588;13.394;2023-03-01T11:30:15;102383.13;;;7.40;52.96
51617;BME280;37697;52.588;13.394;2023-03-01T11:35:47;102382.08;;;7.51;52.06
51617;BME280;37697;52.588;13.394;2023-03-01T11:41:14;102378.02;;;7.64;50.73
51617;BME280;37697;52.588;13.394;2023-03-01T11:46:59;102378.09;;;7.76;49.70
51617;BME280;37697;52.588;13.394;2023-03-01T11:52:33;102374.66;;;7.83;49.83
51617;BME280;37697;52.588;13.394;2023-03-01T11:58:13;102377.40;;;7.94;50.15
51617;BME280;37697;52.588;13.394;2023-03-01T12:04:02;102371.77;;;7.87;47.85
51617;BME280;37697;52.588;13.394;2023-03-01T12:09:48;102368.29;;;8.00;46.20
51617;BME280;37697;52.588;13.394;2023-03-01T12:15:20;102361.73;;;8.11;47.92
51617;BME280;37697;52.588;13.394;2023-03-01T12:20:58;102351.95;;;8.20;46.92
51617;BME280;37697;52.588;13.394;2023-03-01T12:26:32;102347.88;;;8.26;46.51
51617;BME280;37697;52.588;13.394;2023-03-01T12:32:09;102336.46;;;8.29;47.31
51617;BME280;37697;52.588;13.394;2023-03-01T12:37:27;102329.45;;;8.36;46.82
51617;BME280;37697;52.588;13.394;2023-03-01T12:43:06;102324.46;;;8.60;46.91
51617;BME280;37697;52.588;13.394;2023-03-01T12:48:34;102320.48;;;8.49;46.46
51617;BME280;37697;52.588;13.394;2023-03-01T12:54:07;102308.02;;;8.55;46.15
51617;BME280;37697;52.588;13.394;2023-03-01T12:59:41;102311.17;;;8.64;44.73
51617;BME280;37697;52.588;13.394;2023-03-01T13:05:23;102296.61;;;8.75;43.26
51617;BME280;37697;52.588;13.394;2023-03-01T13:10:38;102293.45;;;8.88;43.66
51617;BME280;37697;52.588;13.394;2023-03-01T13:16:38;102284.64;;;8.71;43.83
51617;BME280;37697;52.588;13.394;2023-03-01T13:21:55;102282.69;;;8.48;44.17
51617;BME280;37697;52.588;13.394;2023-03-01T13:27:25;102279.55;;;8.38;43.80
51617;BME280;37697;52.588;13.394;2023-03-01T13:32:40;102279.38;;;8.36;43.84
51617;BME280;37697;52.588;13.394;2023-03-01T13:38:44;102274.81;;;8.42;43.62
51617;BME280;37697;52.588;13.394;2023-03-01T13:44:02;102263.62;;;8.36;43.59
51617;BME280;37697;52.588;13.394;2023-03-01T13:49:33;102259.80;;;8.31;43.72
51617;BME280;37697;52.588;13.394;2023-03-01T13:55:01;102253.61;;;8.36;44.31
51617;BME280;37697;52.588;13.394;2023-03-01T14:00:27;102245.23;;;8.41;44.06
51617;BME280;37697;52.588;13.394;2023-03-01T14:06:12;102243.77;;;8.52;44.00
51617;BME280;37697;52.588;13.394;2023-03-01T14:11:41;102236.27;;;8.32;43.34
51617;BME280;37697;52.588;13.394;2023-03-01T14:17:20;102230.16;;;8.10;43.95
51617;BME280;37697;52.588;13.394;2023-03-01T14:22:45;102220.06;;;8.03;44.03
51617;BME280;37697;52.588;13.394;2023-03-01T14:28:04;102214.33;;;8.05;43.99
51617;BME280;37697;52.588;13.394;2023-03-01T14:33:24;102209.41;;;7.96;44.58
51617;BME280;37697;52.588;13.394;2023-03-01T14:38:42;102204.52;;;7.89;43.93
51617;BME280;37697;52.588;13.394;2023-03-01T14:44:02;102202.61;;;7.75;44.41
51617;BME280;37697;52.588;13.394;2023-03-01T14:49:24;102197.66;;;7.78;44.22
51617;BME280;37697;52.588;13.394;2023-03-01T14:54:43;102195.64;;;7.75;44.53
51617;BME280;37697;52.588;13.394;2023-03-01T14:59:50;102197.56;;;7.72;44.10
51617;BME280;37697;52.588;13.394;2023-03-01T15:05:03;102194.89;;;7.66;44.55
51617;BME280;37697;52.588;13.394;2023-03-01T15:10:34;102186.66;;;7.54;44.75
51617;BME280;37697;52.588;13.394;2023-03-01T15:15:48;102184.21;;;7.45;44.87
51617;BME280;37697;52.588;13.394;2023-03-01T15:21:21;102187.11;;;7.38;44.72
51617;BME280;37697;52.588;13.394;2023-03-01T15:26:41;102190.48;;;7.37;45.22
51617;BME280;37697;52.588;13.394;2023-03-01T15:31:57;102188.88;;;7.30;45.51
51617;BME280;37697;52.588;13.394;2023-03-01T15:37:40;102185.77;;;7.17;45.84
51617;BME280;37697;52.588;13.394;2023-03-01T15:43:40;102189.23;;;7.11;46.51
51617;BME280;37697;52.588;13.394;2023-03-01T15:49:24;102188.15;;;7.01;47.00
51617;BME280;37697;52.588;13.394;2023-03-01T15:54:58;102184.67;;;6.91;47.16
51617;BME280;37697;52.588;13.394;2023-03-01T16:05:33;102172.29;;;6.68;48.00
51617;BME280;37697;52.588;13.394;2023-03-01T16:10:59;102171.55;;;6.57;48.29
51617;BME280;37697;52.588;13.394;2023-03-01T16:16:25;102164.42;;;6.46;48.73
51617;BME280;37697;52.588;13.394;2023-03-01T16:21:41;102161.62;;;6.35;49.08
51617;BME280;37697;52.588;13.394;2023-03-01T16:27:06;102158.32;;;6.22;49.52
51617;BME280;37697;52.588;13.394;2023-03-01T16:32:23;102150.84;;;6.01;49.99
51617;BME280;37697;52.588;13.394;2023-03-01T16:37:35;102155.30;;;5.82;50.44
51617;BME280;37697;52.588;13.394;2023-03-01T16:43:00;102160.98;;;5.62;50.78
51617;BME280;37697;52.588;13.394;2023-03-01T16:48:26;102168.52;;;5.40;51.45
51617;BME280;37697;52.588;13.394;2023-03-01T16:53:46;102171.63;;;5.17;51.62
51617;BME280;37697;52.588;13.394;2023-03-01T16:59:10;102174.97;;;4.91;52.06
51617;BME280;37697;52.588;13.394;2023-03-01T17:04:26;102173.77;;;4.59;52.53
51617;BME280;37697;52.588;13.394;2023-03-01T17:09:52;102174.73;;;4.37;53.13
51617;BME280;37697;52.588;13.394;2023-03-01T17:15:18;102176.89;;;4.19;53.63
51617;BME280;37697;52.588;13.394;2023-03-01T17:20:43;102183.23;;;4.05;53.79
51617;BME280;37697;52.588;13.394;2023-03-01T17:26:10;102184.63;;;3.86;54.29
51617;BME280;37697;52.588;13.394;2023-03-01T17:31:15;102181.33;;;3.69;54.57
51617;BME280;37697;52.588;13.394;2023-03-01T17:36:40;102182.14;;;3.44;54.87
51617;BME280;37697;52.588;13.394;2023-03-01T17:42:07;102183.91;;;3.17;55.22
51617;BME280;37697;52.588;13.394;2023-03-01T17:47:33;102181.20;;;2.98;55.76
51617;BME280;37697;52.588;13.394;2023-03-01T17:52:43;102191.06;;;2.73;55.88
51617;BME280;37697;52.588;13.394;2023-03-01T17:58:02;102194.77;;;2.46;56.40
51617;BME280;37697;52.588;13.394;2023-03-01T18:03:26;102197.66;;;2.24;56.76
51617;BME280;37697;52.588;13.394;2023-03-01T18:08:53;102197.39;;;2.06;57.19
51617;BME280;37697;52.588;13.394;2023-03-01T18:14:18;102191.46;;;1.98;57.48
51617;BME280;37697;52.588;13.394;2023-03-01T18:19:44;102184.58;;;1.85;57.77
51617;BME280;37697;52.588;13.394;2023-03-01T18:25:00;102186.63;;;1.68;58.00
51617;BME280;37697;52.588;13.394;2023-03-01T18:30:26;102188.23;;;1.56;58.37
51617;BME280;37697;52.588;13.394;2023-03-01T18:35:42;102186.17;;;1.42;58.77
51617;BME280;37697;52.588;13.394;2023-03-01T18:41:08;102191.16;;;1.20;59.05
51617;BME280;37697;52.588;13.394;2023-03-01T18:46:13;102192.41;;;1.05;59.35
51617;BME280;37697;52.588;13.394;2023-03-01T18:51:30;102197.41;;;0.93;59.66
51617;BME280;37697;52.588;13.394;2023-03-01T18:56:37;102197.70;;;0.78;59.94
51617;BME280;37697;52.588;13.394;2023-03-01T19:02:03;102200.67;;;0.61;60.34
51617;BME280;37697;52.588;13.394;2023-03-01T19:07:20;102195.95;;;0.53;60.56
51617;BME280;37697;52.588;13.394;2023-03-01T19:12:36;102200.81;;;0.42;61.05
51617;BME280;37697;52.588;13.394;2023-03-01T19:18:02;102198.14;;;0.33;61.36
51617;BME280;37697;52.588;13.394;2023-03-01T19:23:29;102195.47;;;0.28;61.49
51617;BME280;37697;52.588;13.394;2023-03-01T19:28:55;102199.81;;;0.15;61.94
51617;BME280;37697;52.588;13.394;2023-03-01T19:34:21;102204.30;;;0.08;62.04
51617;BME280;37697;52.588;13.394;2023-03-01T19:39:41;102213.63;;;0.00;62.15
51617;BME280;37697;52.588;13.394;2023-03-01T19:45:09;102215.46;;;-0.10;62.55
51617;BME280;37697;52.588;13.394;2023-03-01T19:50:38;102218.23;;;-0.14;62.63
51617;BME280;37697;52.588;13.394;2023-03-01T19:56:05;102212.19;;;-0.24;62.99
51617;BME280;37697;52.588;13.394;2023-03-01T20:01:21;102211.66;;;-0.36;63.51
51617;BME280;37697;52.588;13.394;2023-03-01T20:06:48;102210.66;;;-0.45;63.46
51617;BME280;37697;52.588;13.394;2023-03-01T20:12:14;102210.20;;;-0.54;63.82
51617;BME280;37697;52.588;13.394;2023-03-01T20:17:29;102209.65;;;-0.63;64.00
51617;BME280;37697;52.588;13.394;2023-03-01T20:22:45;102218.39;;;-0.68;64.24
51617;BME280;37697;52.588;13.394;2023-03-01T20:28:06;102216.50;;;-0.73;64.43
51617;BME280;37697;52.588;13.394;2023-03-01T20:33:33;102216.27;;;-0.80;64.68
51617;BME280;37697;52.588;13.394;2023-03-01T20:39:00;102213.27;;;-0.88;64.88
51617;BME280;37697;52.588;13.394;2023-03-01T20:44:16;102214.73;;;-0.93;65.02
51617;BME280;37697;52.588;13.394;2023-03-01T20:49:41;102218.05;;;-0.98;65.16
51617;BME280;37697;52.588;13.394;2023-03-01T20:55:09;102212.73;;;-1.05;65.26
51617;BME280;37697;52.588;13.394;2023-03-01T21:00:35;102213.77;;;-1.13;65.69
51617;BME280;37697;52.588;13.394;2023-03-01T21:06:02;102208.16;;;-1.19;65.82
51617;BME280;37697;52.588;13.394;2023-03-01T21:11:22;102206.48;;;-1.23;65.99
51617;BME280;37697;52.588;13.394;2023-03-01T21:16:51;102206.44;;;-1.27;66.00
51617;BME280;37697;52.588;13.394;2023-03-01T21:22:17;102203.90;;;-1.33;66.11
51617;BME280;37697;52.588;13.394;2023-03-01T21:27:37;102205.70;;;-1.39;66.37
51617;BME280;37697;52.588;13.394;2023-03-01T21:33:03;102208.20;;;-1.44;66.60
51617;BME280;37697;52.588;13.394;2023-03-01T21:38:21;102209.63;;;-1.50;66.75
51617;BME280;37697;52.588;13.394;2023-03-01T21:43:41;102204.89;;;-1.56;66.81
51617;BME280;37697;52.588;13.394;2023-03-01T21:49:09;102202.44;;;-1.67;67.17
51617;BME280;37697;52.588;13.394;2023-03-01T21:54:34;102204.27;;;-1.75;67.44
51617;BME280;37697;52.588;13.394;2023-03-01T22:00:00;102197.90;;;-1.77;67.39
51617;BME280;37697;52.588;13.394;2023-03-01T22:05:26;102195.23;;;-1.83;67.66
51617;BME280;37697;52.588;13.394;2023-03-01T22:10:52;102191.18;;;-1.90;67.88
51617;BME280;37697;52.588;13.394;2023-03-01T22:16:19;102192.15;;;-1.95;67.96
51617;BME280;37697;52.588;13.394;2023-03-01T22:21:38;102196.81;;;-1.99;68.12
51617;BME280;37697;52.588;13.394;2023-03-01T22:26:54;102194.02;;;-2.03;68.17
51617;BME280;37697;52.588;13.394;2023-03-01T22:32:20;102195.46;;;-2.09;68.20
51617;BME280;37697;52.588;13.394;2023-03-01T22:37:46;102188.53;;;-2.14;68.42
51617;BME280;37697;52.588;13.394;2023-03-01T22:43:11;102183.61;;;-2.18;68.60
51617;BME280;37697;52.588;13.394;2023-03-01T22:48:37;102174.09;;;-2.23;68.68
51617;BME280;37697;52.588;13.394;2023-03-01T22:54:04;102174.44;;;-2.28;68.92
51617;BME280;37697;52.588;13.394;2023-03-01T22:59:30;102180.35;;;-2.32;68.96
51617;BME280;37697;52.588;13.394;2023-03-01T23:04:56;102181.30;;;-2.37;69.10
51617;BME280;37697;52.588;13.394;2023-03-01T23:10:21;102179.35;;;-2.42;69.23
51617;BME280;37697;52.588;13.394;2023-03-01T23:15:54;102185.55;;;-2.49;69.49
51617;BME280;37697;52.588;13.394;2023-03-01T23:21:20;102176.09;;;-2.54;69.55
51617;BME280;37697;52.588;13.394;2023-03-01T23:26:46;102172.71;;;-2.59;69.79
51617;BME280;37697;52.588;13.394;2023-03-01T23:32:12;102169.39;;;-2.71;70.02
51617;BME280;37697;52.588;13.394;2023-03-01T23:37:38;102161.91;;;-2.78;70.06
51617;BME280;37697;52.588;13.394;2023-03-01T23:43:03;102158.02;;;-2.82;70.41
51617;BME280;37697;52.588;13.394;2023-03-01T23:48:29;102149.59;;;-2.86;70.54
51617;BME280;37697;52.588;13.394;2023-03-01T23:53:59;102140.79;;;-2.89;70.69
51617;BME280;37697;52.588;13.394;2023-03-01T23:59:25;102140.24;;;-2.93;70.71
